createdAt,value
2022-10-19T00:01:11.186Z,5.20
2022-10-19T00:03:39.139Z,5.30
2022-10-19T00:06:14.827Z,5.40
2022-10-19T00:08:43.214Z,5.30
2022-10-19T00:11:10.846Z,5.20
2022-10-19T00:13:39.581Z,5.20
2022-10-19T00:16:12.002Z,4.90
2022-10-19T00:18:39.802Z,5.10
2022-10-19T00:21:08.929Z,5.10
2022-10-19T00:23:36.301Z,5.10
2022-10-19T00:26:03.298Z,4.80
2022-10-19T00:28:31.078Z,5.00
2022-10-19T00:31:02.483Z,4.90
2022-10-19T00:33:29.231Z,5.00
2022-10-19T00:35:56.539Z,5.10
2022-10-19T00:38:23.355Z,5.10
2022-10-19T00:40:50.094Z,5.00
2022-10-19T00:43:19.150Z,4.80
2022-10-19T00:45:46.122Z,4.80
2022-10-19T00:48:17.281Z,4.90
2022-10-19T00:50:45.891Z,4.80
2022-10-19T00:53:12.711Z,4.70
2022-10-19T00:55:40.954Z,4.60
2022-10-19T00:58:09.255Z,4.70
2022-10-19T01:00:36.202Z,4.60
2022-10-19T01:03:03.791Z,4.70
2022-10-19T01:05:33.725Z,4.80
2022-10-19T01:08:00.882Z,4.70
2022-10-19T01:10:36.919Z,4.60
2022-10-19T01:13:19.586Z,4.60
2022-10-19T01:15:54.724Z,4.70
2022-10-19T01:18:28.406Z,4.50
2022-10-19T01:21:18.444Z,4.70
2022-10-19T01:24:28.411Z,4.60
2022-10-19T01:27:42.954Z,4.50
2022-10-19T01:30:17.350Z,4.30
2022-10-19T01:33:01.819Z,4.30
2022-10-19T01:35:35.977Z,4.40
2022-10-19T01:38:10.203Z,4.40
2022-10-19T01:40:44.669Z,4.40
2022-10-19T01:43:16.275Z,4.10
2022-10-19T01:45:49.258Z,4.10
2022-10-19T01:48:18.908Z,4.10
2022-10-19T01:50:50.567Z,4.10
2022-10-19T01:53:19.312Z,4.10
2022-10-19T01:55:51.095Z,4.20
2022-10-19T01:58:22.492Z,4.30
2022-10-19T02:00:53.581Z,4.20
2022-10-19T02:03:21.990Z,4.30
2022-10-19T02:05:50.956Z,4.50
2022-10-19T02:08:28.674Z,4.30
2022-10-19T02:10:58.110Z,4.30
2022-10-19T02:13:27.899Z,4.10
2022-10-19T02:15:57.390Z,3.70
2022-10-19T02:18:28.370Z,3.80
2022-10-19T02:20:55.769Z,3.80
2022-10-19T02:23:26.298Z,3.90
2022-10-19T02:25:53.603Z,3.60
2022-10-19T02:28:21.715Z,3.70
2022-10-19T02:30:48.678Z,3.60
2022-10-19T02:33:17.112Z,3.60
2022-10-19T02:35:44.444Z,3.50
2022-10-19T02:38:15.758Z,3.60
2022-10-19T02:40:46.879Z,3.50
2022-10-19T02:43:16.313Z,3.50
2022-10-19T02:45:48.229Z,3.50
2022-10-19T02:48:22.331Z,3.50
2022-10-19T02:50:49.141Z,3.40
2022-10-19T02:53:16.821Z,3.60
2022-10-19T02:55:44.146Z,3.70
2022-10-19T02:58:10.885Z,3.60
2022-10-19T03:00:38.227Z,3.60
2022-10-19T03:03:04.945Z,3.60
2022-10-19T03:05:33.064Z,3.50
2022-10-19T03:08:00.427Z,3.50
2022-10-19T03:10:27.245Z,3.60
2022-10-19T03:12:53.982Z,3.50
2022-10-19T03:15:21.297Z,3.60
2022-10-19T03:17:48.039Z,3.50
2022-10-19T03:20:14.930Z,3.50
2022-10-19T03:22:43.661Z,3.40
2022-10-19T03:25:10.410Z,3.40
2022-10-19T03:27:37.246Z,3.30
2022-10-19T03:30:05.217Z,3.50
2022-10-19T03:32:31.935Z,3.50
2022-10-19T03:34:58.662Z,3.50
2022-10-19T03:37:26.276Z,3.50
2022-10-19T03:39:54.325Z,3.90
2022-10-19T03:42:21.073Z,3.70
2022-10-19T03:44:48.407Z,3.70
2022-10-19T03:47:15.165Z,4.20
2022-10-19T03:49:41.911Z,4.10
2022-10-19T03:52:09.277Z,4.00
2022-10-19T03:54:36.006Z,4.20
2022-10-19T03:57:04.108Z,4.00
2022-10-19T03:59:31.599Z,4.00
2022-10-19T04:01:58.312Z,3.90
2022-10-19T04:04:25.052Z,4.10
2022-10-19T04:06:52.351Z,4.30
2022-10-19T04:09:21.263Z,4.40
2022-10-19T04:11:48.958Z,4.60
2022-10-19T04:14:27.185Z,4.50
2022-10-19T04:16:59.989Z,4.50
2022-10-19T04:19:27.339Z,4.60
2022-10-19T04:21:54.071Z,4.60
2022-10-19T04:24:20.796Z,4.50
2022-10-19T04:26:50.307Z,4.40
2022-10-19T04:29:22.759Z,4.40
2022-10-19T04:31:53.797Z,4.30
2022-10-19T04:34:21.148Z,4.20
2022-10-19T04:36:47.838Z,4.00
2022-10-19T04:39:14.647Z,3.80
2022-10-19T04:41:42.068Z,3.60
2022-10-19T04:44:10.108Z,3.60
2022-10-19T04:46:38.258Z,3.60
2022-10-19T04:49:05.768Z,3.50
2022-10-19T04:51:32.477Z,3.60
2022-10-19T04:53:59.941Z,3.60
2022-10-19T04:56:27.853Z,3.50
2022-10-19T04:58:55.608Z,3.40
2022-10-19T05:01:22.609Z,3.40
2022-10-19T05:03:54.722Z,3.40
2022-10-19T05:06:21.458Z,3.80
2022-10-19T05:08:48.874Z,3.70
2022-10-19T05:11:17.079Z,3.60
2022-10-19T05:13:44.368Z,3.70
2022-10-19T05:16:13.628Z,3.60
2022-10-19T05:18:41.303Z,3.60
2022-10-19T05:21:11.779Z,3.60
2022-10-19T05:23:39.674Z,3.60
2022-10-19T05:26:08.989Z,3.50
2022-10-19T05:28:36.592Z,3.70
2022-10-19T05:31:09.101Z,3.70
2022-10-19T05:33:37.071Z,3.40
2022-10-19T05:36:16.882Z,3.30
2022-10-19T05:38:45.188Z,3.40
2022-10-19T05:41:12.047Z,3.70
2022-10-19T05:43:39.289Z,3.70
2022-10-19T05:46:08.519Z,3.80
2022-10-19T05:48:35.787Z,3.80
2022-10-19T05:51:04.075Z,3.70
2022-10-19T05:53:34.129Z,3.70
2022-10-19T05:56:00.930Z,3.60
2022-10-19T05:58:27.648Z,3.70
2022-10-19T06:00:56.909Z,3.90
2022-10-19T06:03:24.554Z,3.80
2022-10-19T06:05:51.996Z,3.80
2022-10-19T06:08:20.868Z,3.80
2022-10-19T06:10:50.319Z,4.00
2022-10-19T06:13:18.528Z,4.00
2022-10-19T06:15:50.654Z,3.90
2022-10-19T06:18:17.387Z,4.00
2022-10-19T06:20:44.138Z,4.10
2022-10-19T06:23:11.492Z,4.20
2022-10-19T06:25:38.205Z,4.20
2022-10-19T06:28:06.294Z,4.30
2022-10-19T06:30:33.658Z,4.10
2022-10-19T06:33:00.500Z,4.10
2022-10-19T06:35:27.284Z,4.20
2022-10-19T06:37:56.158Z,4.20
2022-10-19T06:40:23.084Z,4.40
2022-10-19T06:42:50.063Z,4.40
2022-10-19T06:45:18.815Z,4.30
2022-10-19T06:47:45.548Z,4.30
2022-10-19T06:50:12.646Z,4.30
2022-10-19T06:52:40.046Z,4.30
2022-10-19T06:55:07.729Z,4.40
2022-10-19T06:57:34.881Z,4.40
2022-10-19T07:00:02.756Z,4.60
2022-10-19T07:02:30.878Z,4.60
2022-10-19T07:04:57.636Z,4.60
2022-10-19T07:07:25.064Z,4.70
2022-10-19T07:09:51.981Z,4.70
2022-10-19T07:12:18.737Z,4.80
2022-10-19T07:14:46.058Z,4.80
2022-10-19T07:17:12.759Z,4.70
2022-10-19T07:19:40.806Z,4.80
2022-10-19T07:22:08.175Z,4.90
2022-10-19T07:24:34.900Z,5.00
2022-10-19T07:27:01.626Z,5.20
2022-10-19T07:29:28.971Z,5.20
2022-10-19T07:31:55.709Z,5.30
2022-10-19T07:34:24.295Z,5.40
2022-10-19T07:36:55.459Z,5.40
2022-10-19T07:39:22.204Z,5.40
2022-10-19T07:41:48.931Z,5.50
2022-10-19T07:44:16.421Z,5.60
2022-10-19T07:46:43.171Z,5.70
2022-10-19T07:49:13.605Z,5.70
2022-10-19T07:51:41.000Z,5.80
2022-10-19T07:54:09.165Z,5.70
2022-10-19T07:56:36.035Z,5.70
2022-10-19T07:59:04.137Z,5.80
2022-10-19T08:01:32.659Z,5.80
2022-10-19T08:06:48.455Z,6.00
2022-10-19T08:09:40.024Z,6.10
2022-10-19T08:12:05.413Z,6.20
2022-10-19T08:14:32.617Z,6.30
2022-10-19T08:16:59.529Z,6.40
2022-10-19T08:19:27.077Z,6.50
2022-10-19T08:21:53.814Z,6.60
2022-10-19T08:24:21.906Z,6.80
2022-10-19T08:26:49.283Z,6.80
2022-10-19T08:29:18.204Z,7.00
2022-10-19T08:31:46.641Z,7.10
2022-10-19T08:34:14.231Z,7.20
2022-10-19T08:39:10.048Z,7.70
2022-10-19T08:41:55.566Z,7.90
2022-10-19T08:44:47.478Z,8.10
2022-10-19T08:47:23.549Z,8.10
2022-10-19T08:49:50.975Z,8.30
2022-10-19T08:52:22.064Z,8.40
2022-10-19T08:54:53.233Z,8.60
2022-10-19T08:57:32.442Z,8.90
2022-10-19T09:00:05.676Z,9.00
2022-10-19T09:02:48.995Z,9.10
2022-10-19T09:05:22.413Z,9.10
2022-10-19T09:07:53.396Z,9.30
2022-10-19T09:10:24.902Z,9.40
2022-10-19T09:12:58.839Z,9.60
2022-10-19T09:15:28.816Z,9.80
2022-10-19T09:17:56.219Z,9.70
2022-10-19T09:20:29.227Z,9.90
2022-10-19T09:23:03.532Z,10.10
2022-10-19T09:25:33.391Z,10.00
2022-10-19T09:28:12.788Z,10.20
2022-10-19T09:30:42.700Z,10.30
2022-10-19T09:33:15.994Z,10.30
2022-10-19T09:35:45.258Z,10.30
2022-10-19T09:38:15.211Z,10.30
2022-10-19T09:40:42.506Z,10.30
2022-10-19T09:43:11.387Z,10.60
2022-10-19T09:45:44.853Z,10.70
2022-10-19T09:48:18.036Z,10.60
2022-10-19T09:50:45.999Z,10.50
2022-10-19T09:53:18.991Z,10.80
2022-10-19T09:55:53.087Z,11.10
2022-10-19T09:58:24.166Z,11.00
2022-10-19T10:00:52.884Z,11.20
2022-10-19T10:03:26.001Z,11.20
2022-10-19T10:05:55.603Z,11.40
2022-10-19T10:08:23.349Z,11.20
2022-10-19T10:10:57.206Z,11.60
2022-10-19T10:13:27.039Z,11.20
2022-10-19T10:15:57.131Z,11.80
2022-10-19T10:18:26.224Z,11.90
2022-10-19T10:20:58.956Z,11.70
2022-10-19T10:23:28.771Z,11.50
2022-10-19T10:25:56.748Z,11.40
2022-10-19T10:28:27.071Z,11.70
2022-10-19T10:31:01.369Z,11.60
2022-10-19T10:33:44.147Z,11.60
2022-10-19T10:36:13.042Z,11.90
2022-10-19T10:38:43.435Z,12.00
2022-10-19T10:41:14.040Z,11.90
2022-10-19T10:44:02.322Z,12.00
2022-10-19T10:46:34.803Z,11.70
2022-10-19T10:49:04.043Z,11.50
2022-10-19T10:51:34.711Z,11.80
2022-10-19T10:54:19.323Z,11.70
2022-10-19T10:57:20.193Z,12.00
2022-10-19T10:59:54.719Z,11.70
2022-10-19T11:02:36.207Z,12.00
2022-10-19T11:05:08.541Z,12.00
2022-10-19T11:07:36.548Z,12.00
2022-10-19T11:10:07.127Z,12.00
2022-10-19T11:12:38.249Z,12.00
2022-10-19T11:15:19.179Z,12.10
2022-10-19T11:17:55.507Z,11.90
2022-10-19T11:20:27.309Z,11.90
2022-10-19T11:23:01.533Z,12.00
2022-10-19T11:25:38.551Z,12.10
2022-10-19T11:28:17.291Z,12.20
2022-10-19T11:30:59.430Z,12.10
2022-10-19T11:33:44.322Z,12.00
2022-10-19T11:36:24.830Z,12.00
2022-10-19T11:39:06.195Z,12.60
2022-10-19T11:41:38.766Z,12.80
2022-10-19T11:44:27.025Z,12.90
2022-10-19T11:47:10.522Z,12.70
2022-10-19T11:49:48.865Z,12.60
2022-10-19T11:52:20.989Z,12.70
2022-10-19T11:55:02.336Z,12.90
2022-10-19T11:57:37.765Z,12.60
2022-10-19T12:00:15.411Z,12.10
2022-10-19T12:03:28.397Z,12.70
2022-10-19T12:06:04.873Z,12.20
2022-10-19T12:08:48.329Z,12.30
2022-10-19T12:11:28.245Z,12.80
2022-10-19T12:14:01.891Z,12.40
2022-10-19T12:16:36.348Z,12.50
2022-10-19T12:19:06.802Z,13.10
2022-10-19T12:21:36.146Z,12.80
2022-10-19T12:24:10.938Z,13.00
2022-10-19T12:26:39.638Z,12.30
2022-10-19T12:29:13.783Z,12.30
2022-10-19T12:31:41.215Z,12.30
2022-10-19T12:34:20.244Z,12.40
2022-10-19T12:36:54.965Z,12.50
2022-10-19T12:39:29.286Z,12.60
2022-10-19T12:42:03.047Z,12.70
2022-10-19T12:44:58.597Z,12.70
2022-10-19T12:47:25.942Z,12.80
2022-10-19T12:49:55.238Z,12.90
2022-10-19T12:52:41.902Z,12.50
2022-10-19T12:55:23.990Z,12.40
2022-10-19T12:57:58.719Z,12.60
2022-10-19T13:00:28.820Z,12.90
2022-10-19T13:03:00.436Z,12.80
2022-10-19T13:05:30.954Z,12.70
2022-10-19T13:08:00.161Z,12.40
2022-10-19T13:10:29.544Z,12.40
2022-10-19T13:12:56.540Z,12.50
2022-10-19T13:15:56.528Z,12.40
2022-10-19T13:19:06.501Z,12.60
2022-10-19T13:21:50.143Z,12.70
2022-10-19T13:24:27.454Z,12.60
2022-10-19T13:27:27.896Z,12.40
2022-10-19T13:29:55.345Z,12.70
2022-10-19T13:32:46.049Z,12.70
2022-10-19T13:35:37.202Z,12.90
2022-10-19T13:38:23.623Z,12.70
2022-10-19T13:41:02.161Z,12.60
2022-10-19T13:43:31.667Z,12.50
2022-10-19T13:46:05.855Z,12.60
2022-10-19T13:48:44.073Z,12.30
2022-10-19T13:51:18.593Z,12.30
2022-10-19T13:53:53.972Z,12.30
2022-10-19T13:56:45.073Z,12.50
2022-10-19T13:59:37.078Z,12.30
2022-10-19T14:02:26.827Z,12.10
2022-10-19T14:05:07.329Z,12.00
2022-10-19T14:07:45.644Z,12.00
2022-10-19T14:10:17.114Z,11.90
2022-10-19T14:12:45.656Z,11.70
2022-10-19T14:15:20.990Z,11.80
2022-10-19T14:17:48.584Z,11.80
2022-10-19T14:20:27.390Z,11.80
2022-10-19T14:22:54.877Z,11.90
2022-10-19T14:25:25.304Z,11.90
2022-10-19T14:27:58.203Z,11.90
2022-10-19T14:30:28.114Z,11.90
2022-10-19T14:32:58.138Z,11.80
2022-10-19T14:35:39.300Z,11.80
2022-10-19T14:38:07.302Z,11.70
2022-10-19T14:40:39.774Z,11.70
2022-10-19T14:43:20.418Z,11.60
2022-10-19T14:46:03.825Z,11.60
2022-10-19T14:48:30.589Z,11.60
2022-10-19T14:50:58.326Z,11.60
2022-10-19T14:53:33.966Z,11.60
2022-10-19T14:56:08.014Z,11.70
2022-10-19T14:58:39.933Z,11.80
2022-10-19T15:01:09.350Z,11.80
2022-10-19T15:03:38.102Z,11.80
2022-10-19T15:06:16.618Z,11.80
2022-10-19T15:08:47.575Z,11.80
2022-10-19T15:11:25.818Z,11.80
2022-10-19T15:13:59.108Z,11.80
2022-10-19T15:16:33.099Z,11.80
2022-10-19T15:19:03.680Z,11.80
2022-10-19T15:21:33.405Z,11.80
2022-10-19T15:24:08.838Z,11.70
2022-10-19T15:26:37.521Z,11.60
2022-10-19T15:29:08.792Z,11.50
2022-10-19T15:31:36.246Z,11.40
2022-10-19T15:34:04.076Z,11.40
2022-10-19T15:36:32.302Z,11.30
2022-10-19T15:39:11.830Z,11.10
2022-10-19T15:41:50.400Z,11.00
2022-10-19T15:44:31.170Z,11.00
2022-10-19T15:47:20.767Z,10.90
2022-10-19T15:49:54.143Z,10.80
2022-10-19T15:52:22.553Z,10.70
2022-10-19T15:54:50.027Z,10.60
2022-10-19T15:57:28.618Z,10.60
2022-10-19T15:59:57.238Z,10.50
2022-10-19T16:02:24.521Z,10.40
2022-10-19T16:04:51.518Z,10.40
2022-10-19T16:07:25.173Z,10.30
2022-10-19T16:09:52.103Z,10.20
2022-10-19T16:12:19.423Z,10.20
2022-10-19T16:14:47.506Z,10.20
2022-10-19T16:17:15.262Z,10.20
2022-10-19T16:19:42.789Z,10.10
2022-10-19T16:22:09.630Z,10.00
2022-10-19T16:24:36.463Z,10.00
2022-10-19T16:27:04.019Z,9.90
2022-10-19T16:29:30.778Z,9.90
2022-10-19T16:31:59.084Z,9.90
2022-10-19T16:34:26.469Z,9.80
2022-10-19T16:36:53.228Z,9.80
2022-10-19T16:39:19.929Z,9.90
2022-10-19T16:41:47.267Z,9.90
2022-10-19T16:44:14.057Z,9.80
2022-10-19T16:46:40.855Z,9.70
2022-10-19T16:49:09.594Z,9.70
2022-10-19T16:51:36.864Z,9.60
2022-10-19T16:54:05.706Z,9.70
2022-10-19T16:56:33.752Z,9.70
2022-10-19T16:59:01.945Z,9.60
2022-10-19T17:01:30.119Z,9.60
2022-10-19T17:03:58.037Z,9.50
2022-10-19T17:06:27.241Z,9.50
2022-10-19T17:11:43.526Z,9.40
2022-10-19T17:14:12.460Z,9.50
2022-10-19T17:16:39.303Z,9.50
2022-10-19T17:19:08.181Z,9.40
2022-10-19T17:21:38.194Z,9.40
2022-10-19T17:24:07.453Z,9.40
2022-10-19T17:26:36.622Z,9.30
2022-10-19T17:29:04.478Z,9.30
2022-10-19T17:31:31.450Z,9.20
2022-10-19T17:33:59.330Z,9.20
2022-10-19T17:36:27.789Z,9.20
2022-10-19T17:38:57.229Z,9.20
2022-10-19T17:41:25.883Z,9.20
2022-10-19T17:43:53.430Z,9.20
2022-10-19T17:46:22.368Z,9.20
2022-10-19T17:48:49.965Z,9.20
2022-10-19T17:51:19.234Z,9.10
2022-10-19T17:53:47.943Z,9.10
2022-10-19T17:56:18.960Z,9.00
2022-10-19T17:58:46.290Z,9.00
2022-10-19T18:01:13.379Z,9.00
2022-10-19T18:03:40.989Z,8.90
2022-10-19T18:06:10.846Z,8.90
2022-10-19T18:08:39.600Z,8.90
2022-10-19T18:11:08.681Z,8.80
2022-10-19T18:16:12.945Z,8.70
2022-10-19T18:18:41.825Z,8.70
2022-10-19T18:21:10.710Z,8.60
2022-10-19T18:23:38.620Z,8.40
2022-10-19T18:26:07.872Z,8.50
2022-10-19T18:28:36.255Z,8.50
2022-10-19T18:31:09.127Z,8.40
2022-10-19T18:33:36.379Z,8.50
2022-10-19T18:36:04.485Z,8.60
2022-10-19T18:38:31.427Z,8.40
2022-10-19T18:41:01.396Z,8.40
2022-10-19T18:43:31.648Z,8.30
2022-10-19T18:46:00.785Z,8.30
2022-10-19T18:48:29.225Z,8.30
2022-10-19T18:50:57.042Z,8.20
2022-10-19T18:53:24.343Z,8.20
2022-10-19T18:55:57.371Z,8.10
2022-10-19T18:58:24.964Z,8.20
2022-10-19T19:01:03.567Z,8.20
2022-10-19T19:03:30.958Z,8.10
2022-10-19T19:06:01.091Z,8.10
2022-10-19T19:08:31.134Z,8.00
2022-10-19T19:11:09.340Z,8.10
2022-10-19T19:13:36.091Z,8.00
2022-10-19T19:16:06.369Z,8.00
2022-10-19T19:18:33.326Z,7.90
2022-10-19T19:21:00.165Z,7.90
2022-10-19T19:23:27.839Z,7.90
2022-10-19T19:25:56.237Z,7.80
2022-10-19T19:28:23.011Z,7.80
2022-10-19T19:30:50.494Z,7.70
2022-10-19T19:33:18.575Z,7.80
2022-10-19T19:35:46.536Z,7.70
2022-10-19T19:38:15.021Z,7.80
2022-10-19T19:40:42.800Z,7.80
2022-10-19T19:43:10.216Z,7.70
2022-10-19T19:45:38.510Z,7.70
2022-10-19T19:48:06.534Z,7.70
2022-10-19T19:50:35.133Z,7.60
2022-10-19T19:53:03.039Z,7.60
2022-10-19T19:55:36.633Z,7.60
2022-10-19T19:58:06.302Z,7.60
2022-10-19T20:00:33.034Z,7.50
2022-10-19T20:02:59.965Z,7.50
2022-10-19T20:05:27.439Z,7.40
2022-10-19T20:07:55.585Z,7.40
2022-10-19T20:10:22.351Z,7.30
2022-10-19T20:12:49.675Z,7.40
2022-10-19T20:15:17.917Z,7.30
2022-10-19T20:17:44.946Z,7.30
2022-10-19T20:20:13.660Z,7.40
2022-10-19T20:22:44.699Z,7.30
2022-10-19T20:25:13.425Z,7.10
2022-10-19T20:27:40.377Z,7.20
2022-10-19T20:30:08.134Z,7.10
2022-10-19T20:32:36.934Z,7.20
2022-10-19T20:35:04.053Z,7.20
2022-10-19T20:37:30.746Z,7.10
2022-10-19T20:39:58.173Z,7.10
2022-10-19T20:42:26.251Z,7.10
2022-10-19T20:44:52.979Z,7.20
2022-10-19T20:47:20.831Z,7.10
2022-10-19T20:49:47.835Z,7.10
2022-10-19T20:52:14.549Z,7.10
2022-10-19T20:54:41.914Z,7.00
2022-10-19T20:57:08.655Z,7.10
2022-10-19T20:59:36.817Z,7.00
2022-10-19T21:02:04.189Z,6.90
2022-10-19T21:04:31.038Z,6.90
2022-10-19T21:06:57.775Z,6.90
2022-10-19T21:09:25.081Z,6.80
2022-10-19T21:11:52.550Z,6.90
2022-10-19T21:14:25.184Z,6.90
2022-10-19T21:16:57.598Z,6.90
2022-10-19T21:19:25.838Z,6.80
2022-10-19T21:21:55.211Z,6.80
2022-10-19T21:24:24.478Z,6.80
2022-10-19T21:29:19.127Z,6.80
2022-10-19T21:31:49.212Z,6.70
2022-10-19T21:34:19.493Z,6.80
2022-10-19T21:36:47.750Z,6.80
2022-10-19T21:39:15.038Z,6.90
2022-10-19T21:41:41.760Z,6.80
2022-10-19T21:44:09.354Z,6.80
2022-10-19T21:46:36.141Z,6.80
2022-10-19T21:49:03.385Z,6.80
2022-10-19T21:51:36.135Z,6.70
2022-10-19T21:54:03.710Z,6.80
2022-10-19T21:56:31.302Z,6.80
2022-10-19T21:58:58.169Z,6.90
2022-10-19T22:01:26.606Z,6.90
2022-10-19T22:03:57.412Z,6.80
2022-10-19T22:06:24.979Z,6.80
2022-10-19T22:08:53.646Z,6.90
2022-10-19T22:11:22.170Z,6.90
2022-10-19T22:13:49.023Z,6.80
2022-10-19T22:16:18.254Z,6.80
2022-10-19T22:18:46.693Z,6.80
2022-10-19T22:21:15.462Z,6.80
2022-10-19T22:23:42.510Z,6.70
2022-10-19T22:26:15.684Z,6.80
2022-10-19T22:28:42.812Z,6.70
2022-10-19T22:31:10.488Z,6.80
2022-10-19T22:33:37.240Z,6.80
2022-10-19T22:36:06.343Z,6.90
2022-10-19T22:38:34.214Z,6.70
2022-10-19T22:41:38.114Z,6.70
2022-10-19T22:44:06.818Z,6.80
2022-10-19T22:46:33.597Z,6.70
2022-10-19T22:49:00.383Z,6.70
2022-10-19T22:51:27.800Z,6.70
2022-10-19T22:53:54.505Z,6.60
2022-10-19T22:56:21.291Z,6.60
2022-10-19T22:58:48.619Z,6.60
2022-10-19T23:01:16.943Z,6.50
2022-10-19T23:03:44.193Z,6.40
2022-10-19T23:06:13.605Z,6.50
2022-10-19T23:08:40.406Z,6.40
2022-10-19T23:11:07.329Z,6.40
2022-10-19T23:13:34.802Z,6.30
2022-10-19T23:16:01.630Z,6.30
2022-10-19T23:18:31.617Z,6.30
2022-10-19T23:21:01.050Z,6.30
2022-10-19T23:23:29.537Z,6.30
2022-10-19T23:26:00.838Z,6.30
2022-10-19T23:28:28.856Z,6.20
2022-10-19T23:30:56.054Z,6.20
2022-10-19T23:33:22.888Z,6.20
2022-10-19T23:35:51.696Z,6.10
2022-10-19T23:38:18.458Z,6.20
2022-10-19T23:40:45.197Z,6.20
2022-10-19T23:43:12.526Z,6.20
2022-10-19T23:45:39.599Z,6.10
2022-10-19T23:48:06.401Z,6.10
2022-10-19T23:50:33.775Z,6.20
2022-10-19T23:53:01.874Z,6.10
2022-10-19T23:55:28.647Z,6.20
2022-10-19T23:57:55.962Z,6.30
